Greenbush, MN

9:44 AM CDT on September 19, 2014 (GMT -0500)
Roseau Municipal-Billberg | Change Station
CLOSE
Current Station
Airport
Location: Roseau,
Elevation: 1060 ft
Nearby Weather Stations

Elev 1060 ft 48.86 °N, 95.70 °W | Updated 10 minutes ago

Overcast
Overcast
63 °F
Feels Like 63 °F
N
10
Wind Variable Wind from South

Today
High -- | Low -- °F
--% Chance of Precip.
Yesterday
High -- | Low -- °F
Precip. -- in
7:07 AM 7:28 PM
Waning Crescent, 19% visible
Pressure 29.55 in
Visibility 10.0 miles
Clouds Scattered Clouds 2800 ft
Scattered Clouds 5000 ft
Mostly Cloudy 10000 ft
Dew Point 57 °F
Humidity 82%
Rainfall 0.12 in
Snow Depth Not available.
UV 1 out of 12
Pollen 3.60 out of 12
Air Quality Not available.
Flu Activity Not available.
METAR KROX 191434Z AUTO 19009KT 10SM SCT028 SCT050 BKN100 17/14 A2955 RMK AO2 P0001 LTG DSNT E AND SE

More Conditions Fewer Conditions

Pressure 29.55 in
Visibility 10.0 miles
Clouds Scattered Clouds 2800 ft
Scattered Clouds 5000 ft
Mostly Cloudy 10000 ft
Dew Point 57 °F
Humidity 82%
Rainfall 0.12 in
Snow Depth Not available.
UV 1 out of 12
Pollen 3.60 out of 12
Air Quality Not available.
Flu Activity Not available.
METAR KROX 191434Z AUTO 19009KT 10SM SCT028 SCT050 BKN100 17/14 A2955 RMK AO2 P0001 LTG DSNT E AND SE

More Conditions Fewer Conditions

10-Day Weather Forecast

Almanac

Astronomy

Sep. 19, 2014 Rise Set
Actual Time 7:07 AM CDT 7:28 PM CDT
Civil Twilight 6:35 AM CDT 8:00 PM CDT
Nautical Twilight 5:58 AM CDT 8:37 PM CDT
Astronomical Twilight 5:19 AM CDT 9:16 PM CDT
Moon 2:36 AM CDT 5:13 PM CDT
Length of Visible Light 13h 24m
Length of Day
12h 21m
Tomorrow will be 3m 33s shorter.
Waning Crescent, 19% of the Moon is Illuminated
Today
Waning Crescent
Sep 24
New
Oct 1
First Quarter
Oct 8
Full
Oct 15
Last Quarter

Today's Extremes

State Highs State Lows

Community

WunderPhotos

Upload Photos

1,754,630 photos uploaded!

WunderBlogs® & News

Nearby

Snow Depth

Station Depth Elevation
No new snow has been reported.

Earthquake Activity

City Distance Mag. Time & Date
No recent earthquake activity has been reported nearby.
Minimum magnitude displayed is 2.5.

Coastal Water Temperatures

Place Temperature
No Stations Reporting

Nearby Weather Stations